Dover, OH (44622)

11:13 PM EST on February 19, 2017 (GMT -0500)
Indian Meadows | | Change Station

Elev 928 ft 40.55 °N, 81.49 °W | Updated 7 seconds ago

Clear
Clear
38.3 °F
Feels Like 38 °F
N
0.0
Wind Variable Wind from SW
Gusts 0.0 mph

Today
High -- | Low -- °F
--% Chance of Precip.
Yesterday
High -- | Low -- °F
Precip. -- in
Pressure 30.17 in
Visibility 6.0 miles
Clouds Clear
Windchill 38 °F
Dew Point 36 °F
Humidity 92%
Rainfall 0.00 in
Snow Depth Not available.
7:13 AM 6:06 PM
Last Quarter, 37% visible
METAR KPHD 200353Z AUTO 12003KT 6SM BR CLR 05/04 A3016 RMK AO2 SLP217 T00500039
Pressure 30.17 in
Visibility 6.0 miles
Clouds Clear
Windchill 38 °F
Dew Point 36 °F
Humidity 92%
Rainfall 0.00 in
Snow Depth Not available.
7:13 AM 6:06 PM
Last Quarter, 37% visible
METAR KPHD 200353Z AUTO 12003KT 6SM BR CLR 05/04 A3016 RMK AO2 SLP217 T00500039

Get Your Daily Forecast Email!

Thanks for signing up!

Be on the lookout for a verification email in your inbox.

You'll start receiving the daily forecast at 8 AM.

×

10-Day Weather Forecast

Almanac

Astronomy

Feb. 19, 2017 Rise Set
Actual Time
Civil Twilight
Nautical Twilight
Astronomical Twilight
Moon
Length of Visible Light
Length of Day
Tomorrow will be .
, % of the Moon is Illuminated

Today's Extremes

State Highs State Lows

Community

WunderPhotos

Upload Photos

1,962,540 photos uploaded!

WunderBlog® & News

Nearby

Air Quality

  Air Quality AQ Index Pollutant
Not available.

Snow Depth

Station Depth Elevation

Earthquake Activity

City Distance Mag. Time & Date
Minimum magnitude displayed is 2.5.

Coastal Water Temperatures

Place Temperature

Stations

Nearby Weather Stations

Station Location Temp. Windchill Dew Point Humidity Wind Precip. Elev Updated Type
                   

Watches & Warnings

There are currently no watches in effect.